sensor_id;sensor_type;location;lat;lon;timestamp;temperature;humidity
18189;DHT22;9219;50.396;8.546;2024-03-08T00:00:01;4.10;99.90
18189;DHT22;9219;50.396;8.546;2024-03-08T00:02:36;4.10;99.90
18189;DHT22;9219;50.396;8.546;2024-03-08T00:05:06;4.20;99.90
18189;DHT22;9219;50.396;8.546;2024-03-08T00:07:35;4.10;99.90
18189;DHT22;9219;50.396;8.546;2024-03-08T00:10:02;4.00;99.90
18189;DHT22;9219;50.396;8.546;2024-03-08T00:12:30;3.80;99.90
18189;DHT22;9219;50.396;8.546;2024-03-08T00:17:45;3.80;99.90
18189;DHT22;9219;50.396;8.546;2024-03-08T00:20:14;3.50;99.90
18189;DHT22;9219;50.396;8.546;2024-03-08T00:22:42;3.60;99.90
18189;DHT22;9219;50.396;8.546;2024-03-08T00:25:09;3.80;99.90
18189;DHT22;9219;50.396;8.546;2024-03-08T00:27:40;3.60;99.90
18189;DHT22;9219;50.396;8.546;2024-03-08T00:30:12;3.60;99.90
18189;DHT22;9219;50.396;8.546;2024-03-08T00:32:40;3.70;99.90
18189;DHT22;9219;50.396;8.546;2024-03-08T00:40:20;3.70;99.90
18189;DHT22;9219;50.396;8.546;2024-03-08T00:42:49;3.70;99.90
18189;DHT22;9219;50.396;8.546;2024-03-08T00:45:19;3.60;99.90
18189;DHT22;9219;50.396;8.546;2024-03-08T00:47:46;3.50;99.90
18189;DHT22;9219;50.396;8.546;2024-03-08T00:50:16;3.50;99.90
18189;DHT22;9219;50.396;8.546;2024-03-08T00:52:52;3.60;99.90
18189;DHT22;9219;50.396;8.546;2024-03-08T00:55:21;3.70;99.90
18189;DHT22;9219;50.396;8.546;2024-03-08T01:02:52;3.70;99.90
18189;DHT22;9219;50.396;8.546;2024-03-08T01:05:24;3.30;99.90
18189;DHT22;9219;50.396;8.546;2024-03-08T01:07:55;3.30;99.90
18189;DHT22;9219;50.396;8.546;2024-03-08T01:10:24;3.30;99.90
18189;DHT22;9219;50.396;8.546;2024-03-08T01:12:51;3.30;99.90
18189;DHT22;9219;50.396;8.546;2024-03-08T01:15:20;3.40;99.90
18189;DHT22;9219;50.396;8.546;2024-03-08T01:17:47;3.20;99.90
18189;DHT22;9219;50.396;8.546;2024-03-08T01:25:22;3.20;99.90
18189;DHT22;9219;50.396;8.546;2024-03-08T01:27:51;3.20;99.90
18189;DHT22;9219;50.396;8.546;2024-03-08T01:30:23;3.20;99.90
18189;DHT22;9219;50.396;8.546;2024-03-08T01:32:52;3.20;99.90
18189;DHT22;9219;50.396;8.546;2024-03-08T01:35:20;3.10;99.90
18189;DHT22;9219;50.396;8.546;2024-03-08T01:37:48;3.30;99.90
18189;DHT22;9219;50.396;8.546;2024-03-08T01:40:16;3.30;99.90
18189;DHT22;9219;50.396;8.546;2024-03-08T01:45:27;3.20;99.90
18189;DHT22;9219;50.396;8.546;2024-03-08T01:47:54;3.10;99.90
18189;DHT22;9219;50.396;8.546;2024-03-08T01:50:21;3.00;99.90
18189;DHT22;9219;50.396;8.546;2024-03-08T01:52:48;3.10;99.90
18189;DHT22;9219;50.396;8.546;2024-03-08T01:55:16;3.00;99.90
18189;DHT22;9219;50.396;8.546;2024-03-08T01:57:44;2.80;99.90
18189;DHT22;9219;50.396;8.546;2024-03-08T02:00:12;2.90;99.90
18189;DHT22;9219;50.396;8.546;2024-03-08T02:05:23;2.90;99.90
18189;DHT22;9219;50.396;8.546;2024-03-08T02:07:52;3.00;99.90
18189;DHT22;9219;50.396;8.546;2024-03-08T02:10:19;3.00;99.90
18189;DHT22;9219;50.396;8.546;2024-03-08T02:12:48;3.00;99.90
18189;DHT22;9219;50.396;8.546;2024-03-08T02:15:15;2.80;99.90
18189;DHT22;9219;50.396;8.546;2024-03-08T02:17:44;2.90;99.90
18189;DHT22;9219;50.396;8.546;2024-03-08T02:20:12;2.80;99.90
18189;DHT22;9219;50.396;8.546;2024-03-08T02:27:05;2.60;99.90
18189;DHT22;9219;50.396;8.546;2024-03-08T02:29:33;2.80;99.90
18189;DHT22;9219;50.396;8.546;2024-03-08T02:32:06;2.70;99.90
18189;DHT22;9219;50.396;8.546;2024-03-08T02:34:33;2.70;99.90
18189;DHT22;9219;50.396;8.546;2024-03-08T02:37:01;2.70;99.90
18189;DHT22;9219;50.396;8.546;2024-03-08T02:39:30;2.70;99.90
18189;DHT22;9219;50.396;8.546;2024-03-08T02:42:00;3.00;99.90
18189;DHT22;9219;50.396;8.546;2024-03-08T02:49:02;2.90;99.90
18189;DHT22;9219;50.396;8.546;2024-03-08T02:51:34;2.90;99.90
18189;DHT22;9219;50.396;8.546;2024-03-08T02:54:03;2.70;99.90
18189;DHT22;9219;50.396;8.546;2024-03-08T02:56:31;2.70;99.90
18189;DHT22;9219;50.396;8.546;2024-03-08T02:59:01;2.80;99.90
18189;DHT22;9219;50.396;8.546;2024-03-08T03:01:31;2.80;99.90
18189;DHT22;9219;50.396;8.546;2024-03-08T03:04:00;2.70;99.90
18189;DHT22;9219;50.396;8.546;2024-03-08T03:11:16;2.70;99.90
18189;DHT22;9219;50.396;8.546;2024-03-08T03:13:47;2.50;99.90
18189;DHT22;9219;50.396;8.546;2024-03-08T03:16:17;2.70;99.90
18189;DHT22;9219;50.396;8.546;2024-03-08T03:18:45;2.70;99.90
18189;DHT22;9219;50.396;8.546;2024-03-08T03:21:13;2.70;99.90
18189;DHT22;9219;50.396;8.546;2024-03-08T03:23:41;2.60;99.90
18189;DHT22;9219;50.396;8.546;2024-03-08T03:26:09;2.50;99.90
18189;DHT22;9219;50.396;8.546;2024-03-08T03:31:43;2.50;99.90
18189;DHT22;9219;50.396;8.546;2024-03-08T03:34:11;2.50;99.90
18189;DHT22;9219;50.396;8.546;2024-03-08T03:36:41;2.50;99.90
18189;DHT22;9219;50.396;8.546;2024-03-08T03:39:25;2.60;99.90
18189;DHT22;9219;50.396;8.546;2024-03-08T03:41:56;2.60;99.90
18189;DHT22;9219;50.396;8.546;2024-03-08T03:44:24;2.50;99.90
18189;DHT22;9219;50.396;8.546;2024-03-08T03:46:55;2.30;99.90
18189;DHT22;9219;50.396;8.546;2024-03-08T03:49:27;2.30;99.90
18189;DHT22;9219;50.396;8.546;2024-03-08T03:56:56;2.30;99.90
18189;DHT22;9219;50.396;8.546;2024-03-08T03:59:23;2.20;99.90
18189;DHT22;9219;50.396;8.546;2024-03-08T04:01:51;2.10;99.90
18189;DHT22;9219;50.396;8.546;2024-03-08T04:04:21;2.20;99.90
18189;DHT22;9219;50.396;8.546;2024-03-08T04:06:48;2.20;99.90
18189;DHT22;9219;50.396;8.546;2024-03-08T04:09:17;2.20;99.90
18189;DHT22;9219;50.396;8.546;2024-03-08T04:11:49;2.30;99.90
18189;DHT22;9219;50.396;8.546;2024-03-08T04:17:50;2.40;99.90
18189;DHT22;9219;50.396;8.546;2024-03-08T04:20:22;2.50;99.90
18189;DHT22;9219;50.396;8.546;2024-03-08T04:22:49;2.50;99.90
18189;DHT22;9219;50.396;8.546;2024-03-08T04:25:19;2.50;99.90
18189;DHT22;9219;50.396;8.546;2024-03-08T04:27:47;2.40;99.90
18189;DHT22;9219;50.396;8.546;2024-03-08T04:30:36;2.40;99.90
18189;DHT22;9219;50.396;8.546;2024-03-08T04:33:11;2.40;99.90
18189;DHT22;9219;50.396;8.546;2024-03-08T04:40:52;2.20;99.90
18189;DHT22;9219;50.396;8.546;2024-03-08T04:43:20;2.20;99.90
18189;DHT22;9219;50.396;8.546;2024-03-08T04:45:47;2.10;99.90
18189;DHT22;9219;50.396;8.546;2024-03-08T04:48:15;2.20;99.90
18189;DHT22;9219;50.396;8.546;2024-03-08T04:50:42;2.20;99.90
18189;DHT22;9219;50.396;8.546;2024-03-08T04:53:17;2.20;99.90
18189;DHT22;9219;50.396;8.546;2024-03-08T04:55:44;2.10;99.90
18189;DHT22;9219;50.396;8.546;2024-03-08T04:58:12;2.20;99.90
18189;DHT22;9219;50.396;8.546;2024-03-08T05:02:07;2.20;99.90
18189;DHT22;9219;50.396;8.546;2024-03-08T05:04:34;2.10;99.90
18189;DHT22;9219;50.396;8.546;2024-03-08T05:07:08;2.00;99.90
18189;DHT22;9219;50.396;8.546;2024-03-08T05:09:39;2.20;99.90
18189;DHT22;9219;50.396;8.546;2024-03-08T05:12:07;2.20;99.90
18189;DHT22;9219;50.396;8.546;2024-03-08T05:14:38;2.20;99.90
18189;DHT22;9219;50.396;8.546;2024-03-08T05:17:06;2.20;99.90
18189;DHT22;9219;50.396;8.546;2024-03-08T05:23:50;2.00;99.90
18189;DHT22;9219;50.396;8.546;2024-03-08T05:26:20;1.90;99.90
18189;DHT22;9219;50.396;8.546;2024-03-08T05:28:51;2.00;99.90
18189;DHT22;9219;50.396;8.546;2024-03-08T05:31:25;2.00;99.90
18189;DHT22;9219;50.396;8.546;2024-03-08T05:33:54;1.90;99.90
18189;DHT22;9219;50.396;8.546;2024-03-08T05:36:22;2.00;99.90
18189;DHT22;9219;50.396;8.546;2024-03-08T05:38:51;1.90;99.90
18189;DHT22;9219;50.396;8.546;2024-03-08T05:46:27;2.00;99.90
18189;DHT22;9219;50.396;8.546;2024-03-08T05:48:54;1.80;99.90
18189;DHT22;9219;50.396;8.546;2024-03-08T05:51:24;1.80;99.90
18189;DHT22;9219;50.396;8.546;2024-03-08T05:53:55;1.80;99.90
18189;DHT22;9219;50.396;8.546;2024-03-08T05:56:25;1.80;99.90
18189;DHT22;9219;50.396;8.546;2024-03-08T05:58:52;1.90;99.90
18189;DHT22;9219;50.396;8.546;2024-03-08T06:01:19;2.00;99.90
18189;DHT22;9219;50.396;8.546;2024-03-08T06:08:55;1.80;99.90
18189;DHT22;9219;50.396;8.546;2024-03-08T06:11:23;1.90;99.90
18189;DHT22;9219;50.396;8.546;2024-03-08T06:13:56;2.00;99.90
18189;DHT22;9219;50.396;8.546;2024-03-08T06:16:27;2.00;99.90
18189;DHT22;9219;50.396;8.546;2024-03-08T06:18:56;1.90;99.90
18189;DHT22;9219;50.396;8.546;2024-03-08T06:21:24;1.90;99.90
18189;DHT22;9219;50.396;8.546;2024-03-08T06:23:54;1.80;99.90
18189;DHT22;9219;50.396;8.546;2024-03-08T06:31:34;1.80;99.90
18189;DHT22;9219;50.396;8.546;2024-03-08T06:34:05;1.90;99.90
18189;DHT22;9219;50.396;8.546;2024-03-08T06:36:38;1.80;99.90
18189;DHT22;9219;50.396;8.546;2024-03-08T06:39:06;1.80;99.90
18189;DHT22;9219;50.396;8.546;2024-03-08T06:41:37;1.90;99.90
18189;DHT22;9219;50.396;8.546;2024-03-08T06:44:04;1.90;99.90
18189;DHT22;9219;50.396;8.546;2024-03-08T06:46:34;2.20;99.90
18189;DHT22;9219;50.396;8.546;2024-03-08T06:54:13;2.10;99.90
18189;DHT22;9219;50.396;8.546;2024-03-08T06:56:45;2.20;99.90
18189;DHT22;9219;50.396;8.546;2024-03-08T06:59:19;2.20;99.90
18189;DHT22;9219;50.396;8.546;2024-03-08T07:01:46;2.20;99.90
18189;DHT22;9219;50.396;8.546;2024-03-08T07:04:26;2.40;99.90
18189;DHT22;9219;50.396;8.546;2024-03-08T07:06:57;2.40;99.90
18189;DHT22;9219;50.396;8.546;2024-03-08T07:09:44;2.30;99.90
18189;DHT22;9219;50.396;8.546;2024-03-08T07:12:12;2.40;99.90
18189;DHT22;9219;50.396;8.546;2024-03-08T07:19:35;2.50;99.90
18189;DHT22;9219;50.396;8.546;2024-03-08T07:22:13;2.60;99.90
18189;DHT22;9219;50.396;8.546;2024-03-08T07:24:48;2.70;99.90
18189;DHT22;9219;50.396;8.546;2024-03-08T07:27:34;2.80;99.90
18189;DHT22;9219;50.396;8.546;2024-03-08T07:30:27;2.80;99.90
18189;DHT22;9219;50.396;8.546;2024-03-08T07:33:12;3.10;99.90
18189;DHT22;9219;50.396;8.546;2024-03-08T07:35:43;3.20;99.90
18189;DHT22;9219;50.396;8.546;2024-03-08T07:38:18;3.20;99.90
18189;DHT22;9219;50.396;8.546;2024-03-08T07:45:51;3.60;99.90
18189;DHT22;9219;50.396;8.546;2024-03-08T07:48:19;3.70;99.90
18189;DHT22;9219;50.396;8.546;2024-03-08T07:50:49;3.90;99.90
18189;DHT22;9219;50.396;8.546;2024-03-08T07:53:17;4.00;99.90
18189;DHT22;9219;50.396;8.546;2024-03-08T07:55:47;4.20;99.90
18189;DHT22;9219;50.396;8.546;2024-03-08T07:58:14;4.20;99.90
18189;DHT22;9219;50.396;8.546;2024-03-08T08:00:43;4.40;99.90
18189;DHT22;9219;50.396;8.546;2024-03-08T08:03:12;4.60;99.90
18189;DHT22;9219;50.396;8.546;2024-03-08T08:10:45;4.60;99.90
18189;DHT22;9219;50.396;8.546;2024-03-08T08:13:13;5.00;99.90
18189;DHT22;9219;50.396;8.546;2024-03-08T08:15:53;5.00;99.90
18189;DHT22;9219;50.396;8.546;2024-03-08T08:18:21;5.10;99.90
18189;DHT22;9219;50.396;8.546;2024-03-08T08:20:51;5.20;99.90
18189;DHT22;9219;50.396;8.546;2024-03-08T08:23:21;5.30;99.90
18189;DHT22;9219;50.396;8.546;2024-03-08T08:25:54;5.50;99.90
18189;DHT22;9219;50.396;8.546;2024-03-08T08:33:40;5.80;99.90
18189;DHT22;9219;50.396;8.546;2024-03-08T08:36:10;6.10;99.90
18189;DHT22;9219;50.396;8.546;2024-03-08T08:38:40;6.00;99.90
18189;DHT22;9219;50.396;8.546;2024-03-08T08:41:12;6.10;99.90
18189;DHT22;9219;50.396;8.546;2024-03-08T08:46:40;6.50;99.90
18189;DHT22;9219;50.396;8.546;2024-03-08T08:49:14;6.50;99.90
18189;DHT22;9219;50.396;8.546;2024-03-08T08:56:01;6.80;99.90
18189;DHT22;9219;50.396;8.546;2024-03-08T08:58:30;6.80;99.90
18189;DHT22;9219;50.396;8.546;2024-03-08T09:00:59;7.00;99.90
18189;DHT22;9219;50.396;8.546;2024-03-08T09:03:29;7.20;99.90
18189;DHT22;9219;50.396;8.546;2024-03-08T09:06:04;7.30;99.90
18189;DHT22;9219;50.396;8.546;2024-03-08T09:08:45;7.40;99.90
18189;DHT22;9219;50.396;8.546;2024-03-08T09:11:13;7.50;99.90
18189;DHT22;9219;50.396;8.546;2024-03-08T09:13:49;7.50;99.90
18189;DHT22;9219;50.396;8.546;2024-03-08T09:16:26;7.60;99.90
18189;DHT22;9219;50.396;8.546;2024-03-08T09:19:20;7.70;99.90
18189;DHT22;9219;50.396;8.546;2024-03-08T09:22:03;8.10;99.90
18189;DHT22;9219;50.396;8.546;2024-03-08T09:24:30;8.20;99.90
18189;DHT22;9219;50.396;8.546;2024-03-08T09:26:57;8.40;99.90
18189;DHT22;9219;50.396;8.546;2024-03-08T09:29:25;8.60;99.90
18189;DHT22;9219;50.396;8.546;2024-03-08T09:31:53;8.80;99.90
18189;DHT22;9219;50.396;8.546;2024-03-08T09:34:30;8.70;99.90
18189;DHT22;9219;50.396;8.546;2024-03-08T09:37:04;8.60;99.90
18189;DHT22;9219;50.396;8.546;2024-03-08T09:39:45;8.60;99.90
18189;DHT22;9219;50.396;8.546;2024-03-08T09:42:22;8.70;99.90
18189;DHT22;9219;50.396;8.546;2024-03-08T09:44:54;9.00;99.90
18189;DHT22;9219;50.396;8.546;2024-03-08T09:47:25;9.20;99.90
18189;DHT22;9219;50.396;8.546;2024-03-08T09:49:58;9.30;99.90
18189;DHT22;9219;50.396;8.546;2024-03-08T09:52:25;9.10;99.90
18189;DHT22;9219;50.396;8.546;2024-03-08T09:54:54;9.10;99.90
18189;DHT22;9219;50.396;8.546;2024-03-08T09:57:21;9.10;99.90
18189;DHT22;9219;50.396;8.546;2024-03-08T10:04:53;9.70;99.90
18189;DHT22;9219;50.396;8.546;2024-03-08T10:07:28;9.90;99.90
18189;DHT22;9219;50.396;8.546;2024-03-08T10:09:56;10.00;99.90
18189;DHT22;9219;50.396;8.546;2024-03-08T10:12:29;9.90;99.90
18189;DHT22;9219;50.396;8.546;2024-03-08T10:15:01;10.10;99.90
18189;DHT22;9219;50.396;8.546;2024-03-08T10:17:57;9.90;99.90
18189;DHT22;9219;50.396;8.546;2024-03-08T10:20:27;10.10;99.90
18189;DHT22;9219;50.396;8.546;2024-03-08T10:23:05;10.10;99.90
18189;DHT22;9219;50.396;8.546;2024-03-08T10:25:57;10.10;99.90
18189;DHT22;9219;50.396;8.546;2024-03-08T10:28:37;10.30;99.90
18189;DHT22;9219;50.396;8.546;2024-03-08T10:36:23;10.40;99.90
18189;DHT22;9219;50.396;8.546;2024-03-08T10:38:58;10.50;99.90
18189;DHT22;9219;50.396;8.546;2024-03-08T10:41:36;10.40;99.90
18189;DHT22;9219;50.396;8.546;2024-03-08T10:44:17;10.50;99.90
18189;DHT22;9219;50.396;8.546;2024-03-08T10:47:22;10.60;99.90
18189;DHT22;9219;50.396;8.546;2024-03-08T10:50:26;10.90;99.90
18189;DHT22;9219;50.396;8.546;2024-03-08T10:53:21;10.80;99.90
18189;DHT22;9219;50.396;8.546;2024-03-08T10:56:08;10.60;99.90
18189;DHT22;9219;50.396;8.546;2024-03-08T11:02:06;10.40;99.90
18189;DHT22;9219;50.396;8.546;2024-03-08T11:04:51;10.60;99.90
18189;DHT22;9219;50.396;8.546;2024-03-08T11:07:22;10.80;99.90
18189;DHT22;9219;50.396;8.546;2024-03-08T11:10:28;10.80;99.90
18189;DHT22;9219;50.396;8.546;2024-03-08T11:13:40;10.70;99.90
18189;DHT22;9219;50.396;8.546;2024-03-08T11:16:39;10.90;99.90
18189;DHT22;9219;50.396;8.546;2024-03-08T11:19:26;10.90;99.90
18189;DHT22;9219;50.396;8.546;2024-03-08T11:22:02;11.00;99.90
18189;DHT22;9219;50.396;8.546;2024-03-08T11:24:39;11.10;99.90
18189;DHT22;9219;50.396;8.546;2024-03-08T11:30:25;11.20;99.90
18189;DHT22;9219;50.396;8.546;2024-03-08T11:33:12;11.10;99.90
18189;DHT22;9219;50.396;8.546;2024-03-08T11:35:42;11.10;99.90
18189;DHT22;9219;50.396;8.546;2024-03-08T11:38:14;11.40;99.90
18189;DHT22;9219;50.396;8.546;2024-03-08T11:40:46;11.10;99.90
18189;DHT22;9219;50.396;8.546;2024-03-08T11:43:17;11.20;99.90
18189;DHT22;9219;50.396;8.546;2024-03-08T11:45:50;11.40;99.90
18189;DHT22;9219;50.396;8.546;2024-03-08T11:48:42;11.50;99.90
18189;DHT22;9219;50.396;8.546;2024-03-08T11:51:19;11.70;99.90
18189;DHT22;9219;50.396;8.546;2024-03-08T11:53:48;11.80;99.90
18189;DHT22;9219;50.396;8.546;2024-03-08T12:03:35;11.60;99.90
18189;DHT22;9219;50.396;8.546;2024-03-08T12:06:02;11.90;99.90
18189;DHT22;9219;50.396;8.546;2024-03-08T12:08:33;12.10;99.90
18189;DHT22;9219;50.396;8.546;2024-03-08T12:11:04;12.00;99.90
18189;DHT22;9219;50.396;8.546;2024-03-08T12:13:46;12.00;99.90
18189;DHT22;9219;50.396;8.546;2024-03-08T12:16:37;11.90;99.90
18189;DHT22;9219;50.396;8.546;2024-03-08T12:19:38;11.80;99.90
18189;DHT22;9219;50.396;8.546;2024-03-08T12:22:10;11.40;99.90
18189;DHT22;9219;50.396;8.546;2024-03-08T12:24:43;11.60;99.90
18189;DHT22;9219;50.396;8.546;2024-03-08T12:32:48;11.60;99.90
18189;DHT22;9219;50.396;8.546;2024-03-08T12:35:19;11.80;99.90
18189;DHT22;9219;50.396;8.546;2024-03-08T12:37:50;12.10;99.90
18189;DHT22;9219;50.396;8.546;2024-03-08T12:40:18;12.30;99.90
18189;DHT22;9219;50.396;8.546;2024-03-08T12:42:50;12.50;99.90
18189;DHT22;9219;50.396;8.546;2024-03-08T12:45:32;12.60;99.90
18189;DHT22;9219;50.396;8.546;2024-03-08T12:48:03;12.40;99.90
18189;DHT22;9219;50.396;8.546;2024-03-08T12:50:46;12.60;99.90
18189;DHT22;9219;50.396;8.546;2024-03-08T12:57:56;12.50;99.90
18189;DHT22;9219;50.396;8.546;2024-03-08T13:00:25;12.60;99.90
18189;DHT22;9219;50.396;8.546;2024-03-08T13:02:55;12.90;99.90
18189;DHT22;9219;50.396;8.546;2024-03-08T13:05:25;12.80;99.90
18189;DHT22;9219;50.396;8.546;2024-03-08T13:08:18;12.70;99.90
18189;DHT22;9219;50.396;8.546;2024-03-08T13:10:55;12.80;99.90
18189;DHT22;9219;50.396;8.546;2024-03-08T13:13:40;12.80;99.90
18189;DHT22;9219;50.396;8.546;2024-03-08T13:16:17;12.80;99.90
18189;DHT22;9219;50.396;8.546;2024-03-08T13:34:32;12.80;99.90
18189;DHT22;9219;50.396;8.546;2024-03-08T13:37:03;12.70;99.90
18189;DHT22;9219;50.396;8.546;2024-03-08T13:39:34;12.70;99.90
18189;DHT22;9219;50.396;8.546;2024-03-08T13:42:19;12.60;99.90
18189;DHT22;9219;50.396;8.546;2024-03-08T13:44:57;12.50;99.90
18189;DHT22;9219;50.396;8.546;2024-03-08T13:47:24;12.50;99.90
18189;DHT22;9219;50.396;8.546;2024-03-08T13:49:55;12.50;99.90
18189;DHT22;9219;50.396;8.546;2024-03-08T13:58:08;12.80;99.90
18189;DHT22;9219;50.396;8.546;2024-03-08T14:00:37;12.40;99.90
18189;DHT22;9219;50.396;8.546;2024-03-08T14:03:05;12.30;99.90
18189;DHT22;9219;50.396;8.546;2024-03-08T14:05:38;12.20;99.90
18189;DHT22;9219;50.396;8.546;2024-03-08T14:08:10;12.40;99.90
18189;DHT22;9219;50.396;8.546;2024-03-08T14:10:44;12.30;99.90
18189;DHT22;9219;50.396;8.546;2024-03-08T14:13:15;12.20;99.90
18189;DHT22;9219;50.396;8.546;2024-03-08T14:15:57;12.30;99.90
18189;DHT22;9219;50.396;8.546;2024-03-08T14:27:12;12.10;99.90
18189;DHT22;9219;50.396;8.546;2024-03-08T14:31:30;11.90;99.90
18189;DHT22;9219;50.396;8.546;2024-03-08T14:33:37;11.90;99.90
18189;DHT22;9219;50.396;8.546;2024-03-08T14:36:10;11.90;99.90
18189;DHT22;9219;50.396;8.546;2024-03-08T14:38:40;11.90;99.90
18189;DHT22;9219;50.396;8.546;2024-03-08T14:41:13;11.90;99.90
18189;DHT22;9219;50.396;8.546;2024-03-08T14:43:43;11.90;99.90
18189;DHT22;9219;50.396;8.546;2024-03-08T14:46:14;11.90;99.90
18189;DHT22;9219;50.396;8.546;2024-03-08T14:55:12;12.10;99.90
18189;DHT22;9219;50.396;8.546;2024-03-08T14:57:46;12.00;99.90
18189;DHT22;9219;50.396;8.546;2024-03-08T15:00:22;11.90;99.90
18189;DHT22;9219;50.396;8.546;2024-03-08T15:03:18;11.80;99.90
18189;DHT22;9219;50.396;8.546;2024-03-08T15:05:46;11.70;99.90
18189;DHT22;9219;50.396;8.546;2024-03-08T15:11:10;11.70;99.90
18189;DHT22;9219;50.396;8.546;2024-03-08T15:13:46;11.70;99.90
18189;DHT22;9219;50.396;8.546;2024-03-08T15:20:13;11.70;99.90
18189;DHT22;9219;50.396;8.546;2024-03-08T15:22:43;11.80;99.90
18189;DHT22;9219;50.396;8.546;2024-03-08T15:25:19;11.90;99.90
18189;DHT22;9219;50.396;8.546;2024-03-08T15:27:47;11.80;99.90
18189;DHT22;9219;50.396;8.546;2024-03-08T15:30:16;11.80;99.90
18189;DHT22;9219;50.396;8.546;2024-03-08T15:32:52;11.80;99.90
18189;DHT22;9219;50.396;8.546;2024-03-08T15:36:19;11.70;99.90
18189;DHT22;9219;50.396;8.546;2024-03-08T15:39:00;11.70;99.90
18189;DHT22;9219;50.396;8.546;2024-03-08T15:41:40;11.70;99.90
18189;DHT22;9219;50.396;8.546;2024-03-08T15:51:40;11.80;99.90
18189;DHT22;9219;50.396;8.546;2024-03-08T15:54:31;11.70;99.90
18189;DHT22;9219;50.396;8.546;2024-03-08T15:57:31;11.70;99.90
18189;DHT22;9219;50.396;8.546;2024-03-08T16:03:15;11.40;99.90
18189;DHT22;9219;50.396;8.546;2024-03-08T16:05:48;11.50;99.90
18189;DHT22;9219;50.396;8.546;2024-03-08T16:15:33;11.10;99.90
18189;DHT22;9219;50.396;8.546;2024-03-08T16:25:00;11.20;99.90
18189;DHT22;9219;50.396;8.546;2024-03-08T16:40:13;10.80;99.90
18189;DHT22;9219;50.396;8.546;2024-03-08T16:42:43;10.80;99.90
18189;DHT22;9219;50.396;8.546;2024-03-08T16:45:22;10.80;99.90
18189;DHT22;9219;50.396;8.546;2024-03-08T16:48:21;10.60;99.90
18189;DHT22;9219;50.396;8.546;2024-03-08T16:50:50;10.60;99.90
18189;DHT22;9219;50.396;8.546;2024-03-08T16:56:27;10.70;99.90
18189;DHT22;9219;50.396;8.546;2024-03-08T17:09:18;10.40;99.90
18189;DHT22;9219;50.396;8.546;2024-03-08T17:44:58;9.50;99.90
18189;DHT22;9219;50.396;8.546;2024-03-08T18:31:09;8.80;99.90
18189;DHT22;9219;50.396;8.546;2024-03-08T18:41:38;8.70;99.90
18189;DHT22;9219;50.396;8.546;2024-03-08T18:50:50;8.60;99.90
18189;DHT22;9219;50.396;8.546;2024-03-08T18:53:24;8.50;99.90
18189;DHT22;9219;50.396;8.546;2024-03-08T19:00:07;8.30;99.90
18189;DHT22;9219;50.396;8.546;2024-03-08T19:03:35;8.30;99.90
18189;DHT22;9219;50.396;8.546;2024-03-08T19:06:53;8.20;99.90
18189;DHT22;9219;50.396;8.546;2024-03-08T19:10:02;8.30;99.90
18189;DHT22;9219;50.396;8.546;2024-03-08T19:59:26;7.70;99.90
18189;DHT22;9219;50.396;8.546;2024-03-08T20:02:37;7.70;99.90
18189;DHT22;9219;50.396;8.546;2024-03-08T20:05:49;7.60;99.90
18189;DHT22;9219;50.396;8.546;2024-03-08T20:48:59;7.00;99.90
18189;DHT22;9219;50.396;8.546;2024-03-08T20:52:35;7.10;99.90
18189;DHT22;9219;50.396;8.546;2024-03-08T20:55:44;7.00;99.90
18189;DHT22;9219;50.396;8.546;2024-03-08T20:58:36;6.90;99.90
18189;DHT22;9219;50.396;8.546;2024-03-08T21:22:22;6.70;99.90
18189;DHT22;9219;50.396;8.546;2024-03-08T21:25:37;6.80;99.90
18189;DHT22;9219;50.396;8.546;2024-03-08T21:52:18;6.70;99.90
18189;DHT22;9219;50.396;8.546;2024-03-08T21:55:52;6.70;99.90
18189;DHT22;9219;50.396;8.546;2024-03-08T21:58:49;6.60;99.90
18189;DHT22;9219;50.396;8.546;2024-03-08T22:18:39;6.60;99.90
18189;DHT22;9219;50.396;8.546;2024-03-08T22:21:33;6.50;99.90
18189;DHT22;9219;50.396;8.546;2024-03-08T22:31:38;6.40;99.90
18189;DHT22;9219;50.396;8.546;2024-03-08T22:34:52;6.40;99.90
18189;DHT22;9219;50.396;8.546;2024-03-08T22:40:48;6.30;99.90
18189;DHT22;9219;50.396;8.546;2024-03-08T22:47:58;6.10;99.90
18189;DHT22;9219;50.396;8.546;2024-03-08T22:51:29;6.10;99.90
18189;DHT22;9219;50.396;8.546;2024-03-08T23:09:21;6.00;99.90
18189;DHT22;9219;50.396;8.546;2024-03-08T23:15:52;5.80;99.90
18189;DHT22;9219;50.396;8.546;2024-03-08T23:25:37;5.80;99.90
18189;DHT22;9219;50.396;8.546;2024-03-08T23:28:33;5.70;99.90
